sensor_id;sensor_type;location;lat;lon;timestamp;pressure;altitude;pressure_sealevel;temperature;humidity
73220;BME280;61434;43.538;-5.688;2022-11-20T00:01:31;101813.59;;;12.71;74.98
73220;BME280;61434;43.538;-5.688;2022-11-20T00:03:57;101804.00;;;12.67;74.17
73220;BME280;61434;43.538;-5.688;2022-11-20T00:06:23;101800.31;;;12.68;74.54
73220;BME280;61434;43.538;-5.688;2022-11-20T00:08:49;101807.56;;;12.67;74.53
73220;BME280;61434;43.538;-5.688;2022-11-20T00:11:15;101801.66;;;12.73;74.33
73220;BME280;61434;43.538;-5.688;2022-11-20T00:13:41;101809.19;;;12.70;74.41
73220;BME280;61434;43.538;-5.688;2022-11-20T00:16:08;101815.66;;;12.67;74.84
73220;BME280;61434;43.538;-5.688;2022-11-20T00:18:34;101805.34;;;12.72;74.90
73220;BME280;61434;43.538;-5.688;2022-11-20T00:23:28;101806.47;;;12.70;74.85
73220;BME280;61434;43.538;-5.688;2022-11-20T00:25:54;101810.28;;;12.78;75.60
73220;BME280;61434;43.538;-5.688;2022-11-20T00:28:19;101805.88;;;12.89;75.36
73220;BME280;61434;43.538;-5.688;2022-11-20T00:30:44;101811.91;;;12.92;74.78
73220;BME280;61434;43.538;-5.688;2022-11-20T00:33:09;101809.19;;;12.81;75.40
73220;BME280;61434;43.538;-5.688;2022-11-20T00:35:35;101797.78;;;12.89;75.50
73220;BME280;61434;43.538;-5.688;2022-11-20T00:38:00;101797.19;;;12.96;74.73
73220;BME280;61434;43.538;-5.688;2022-11-20T00:40:25;101796.94;;;12.99;75.06
73220;BME280;61434;43.538;-5.688;2022-11-20T00:42:51;101793.41;;;12.99;74.82
73220;BME280;61434;43.538;-5.688;2022-11-20T00:45:16;101797.31;;;13.06;75.19
73220;BME280;61434;43.538;-5.688;2022-11-20T00:47:41;101788.47;;;13.04;75.30
73220;BME280;61434;43.538;-5.688;2022-11-20T00:50:07;101791.91;;;13.06;74.95
73220;BME280;61434;43.538;-5.688;2022-11-20T00:52:32;101786.28;;;13.09;75.03
73220;BME280;61434;43.538;-5.688;2022-11-20T00:54:58;101786.28;;;13.20;74.90
73220;BME280;61434;43.538;-5.688;2022-11-20T00:57:23;101791.59;;;13.22;75.12
73220;BME280;61434;43.538;-5.688;2022-11-20T00:59:48;101782.88;;;13.29;74.54
73220;BME280;61434;43.538;-5.688;2022-11-20T01:02:13;101788.03;;;13.32;74.88
73220;BME280;61434;43.538;-5.688;2022-11-20T01:04:41;101783.22;;;13.36;75.22
73220;BME280;61434;43.538;-5.688;2022-11-20T01:07:06;101782.50;;;13.45;74.98
73220;BME280;61434;43.538;-5.688;2022-11-20T01:09:32;101781.53;;;13.46;74.87
73220;BME280;61434;43.538;-5.688;2022-11-20T01:11:57;101775.84;;;13.49;75.11
73220;BME280;61434;43.538;-5.688;2022-11-20T01:14:24;101768.47;;;13.51;75.26
73220;BME280;61434;43.538;-5.688;2022-11-20T01:16:50;101768.34;;;13.53;74.99
73220;BME280;61434;43.538;-5.688;2022-11-20T01:19:20;101767.97;;;13.57;75.33
73220;BME280;61434;43.538;-5.688;2022-11-20T01:21:47;101767.22;;;13.67;74.98
73220;BME280;61434;43.538;-5.688;2022-11-20T01:24:14;101762.81;;;13.66;75.11
73220;BME280;61434;43.538;-5.688;2022-11-20T01:26:40;101762.44;;;13.70;75.18
73220;BME280;61434;43.538;-5.688;2022-11-20T01:29:06;101765.72;;;13.74;75.27
73220;BME280;61434;43.538;-5.688;2022-11-20T01:31:33;101760.44;;;13.72;75.52
73220;BME280;61434;43.538;-5.688;2022-11-20T01:34:00;101752.94;;;13.76;75.10
73220;BME280;61434;43.538;-5.688;2022-11-20T01:36:26;101760.94;;;13.77;75.85
73220;BME280;61434;43.538;-5.688;2022-11-20T01:38:56;101764.97;;;13.83;75.60
73220;BME280;61434;43.538;-5.688;2022-11-20T01:41:22;101762.41;;;13.81;75.67
73220;BME280;61434;43.538;-5.688;2022-11-20T01:44:06;101771.38;;;13.82;75.52
73220;BME280;61434;43.538;-5.688;2022-11-20T01:46:32;101766.31;;;13.89;75.53
73220;BME280;61434;43.538;-5.688;2022-11-20T01:49:02;101762.88;;;13.86;75.86
73220;BME280;61434;43.538;-5.688;2022-11-20T01:51:29;101768.28;;;13.86;76.01
73220;BME280;61434;43.538;-5.688;2022-11-20T01:53:58;101772.97;;;13.84;76.28
73220;BME280;61434;43.538;-5.688;2022-11-20T01:56:24;101781.84;;;13.86;75.87
73220;BME280;61434;43.538;-5.688;2022-11-20T01:58:51;101777.13;;;13.89;76.32
73220;BME280;61434;43.538;-5.688;2022-11-20T02:01:18;101773.09;;;13.83;76.57
73220;BME280;61434;43.538;-5.688;2022-11-20T02:03:45;101769.00;;;13.89;76.21
73220;BME280;61434;43.538;-5.688;2022-11-20T02:06:16;101768.66;;;13.82;77.13
73220;BME280;61434;43.538;-5.688;2022-11-20T02:08:43;101759.69;;;13.81;77.71
73220;BME280;61434;43.538;-5.688;2022-11-20T02:11:08;101761.78;;;13.78;78.26
73220;BME280;61434;43.538;-5.688;2022-11-20T02:13:34;101768.44;;;13.85;78.21
73220;BME280;61434;43.538;-5.688;2022-11-20T02:16:09;101767.06;;;13.91;78.27
73220;BME280;61434;43.538;-5.688;2022-11-20T02:18:35;101764.81;;;13.96;78.25
73220;BME280;61434;43.538;-5.688;2022-11-20T02:21:03;101762.72;;;13.99;78.40
73220;BME280;61434;43.538;-5.688;2022-11-20T02:25:56;101752.38;;;14.04;78.46
73220;BME280;61434;43.538;-5.688;2022-11-20T02:28:23;101757.03;;;14.02;78.76
73220;BME280;61434;43.538;-5.688;2022-11-20T02:30:49;101747.34;;;14.00;78.63
73220;BME280;61434;43.538;-5.688;2022-11-20T02:33:14;101746.47;;;13.99;78.28
73220;BME280;61434;43.538;-5.688;2022-11-20T02:35:41;101753.72;;;13.99;78.07
73220;BME280;61434;43.538;-5.688;2022-11-20T02:38:07;101744.34;;;14.03;78.42
73220;BME280;61434;43.538;-5.688;2022-11-20T02:40:33;101745.34;;;14.02;78.30
73220;BME280;61434;43.538;-5.688;2022-11-20T02:42:58;101742.09;;;14.08;78.13
73220;BME280;61434;43.538;-5.688;2022-11-20T02:45:24;101743.56;;;14.12;77.83
73220;BME280;61434;43.538;-5.688;2022-11-20T02:47:50;101736.44;;;14.11;77.55
73220;BME280;61434;43.538;-5.688;2022-11-20T02:50:15;101739.16;;;14.11;77.79
73220;BME280;61434;43.538;-5.688;2022-11-20T02:52:41;101728.19;;;14.12;77.51
73220;BME280;61434;43.538;-5.688;2022-11-20T02:55:06;101724.38;;;14.15;77.52
73220;BME280;61434;43.538;-5.688;2022-11-20T02:57:32;101735.53;;;14.22;77.54
73220;BME280;61434;43.538;-5.688;2022-11-20T02:59:57;101723.84;;;14.21;77.39
73220;BME280;61434;43.538;-5.688;2022-11-20T03:02:22;101726.47;;;14.11;77.71
73220;BME280;61434;43.538;-5.688;2022-11-20T03:04:47;101732.25;;;14.18;77.48
73220;BME280;61434;43.538;-5.688;2022-11-20T03:07:13;101725.16;;;14.27;77.14
73220;BME280;61434;43.538;-5.688;2022-11-20T03:09:38;101737.38;;;14.21;77.20
73220;BME280;61434;43.538;-5.688;2022-11-20T03:12:03;101730.47;;;14.28;77.24
73220;BME280;61434;43.538;-5.688;2022-11-20T03:14:29;101722.59;;;14.25;77.40
73220;BME280;61434;43.538;-5.688;2022-11-20T03:16:55;101724.78;;;14.31;76.99
73220;BME280;61434;43.538;-5.688;2022-11-20T03:19:20;101710.25;;;14.32;76.41
73220;BME280;61434;43.538;-5.688;2022-11-20T03:21:45;101707.41;;;14.34;76.20
73220;BME280;61434;43.538;-5.688;2022-11-20T03:24:10;101715.78;;;14.31;76.55
73220;BME280;61434;43.538;-5.688;2022-11-20T03:26:36;101712.47;;;14.27;76.81
73220;BME280;61434;43.538;-5.688;2022-11-20T03:29:02;101696.22;;;14.27;76.99
73220;BME280;61434;43.538;-5.688;2022-11-20T03:31:36;101702.97;;;14.33;76.80
73220;BME280;61434;43.538;-5.688;2022-11-20T03:34:02;101702.22;;;14.31;76.88
73220;BME280;61434;43.538;-5.688;2022-11-20T03:36:28;101698.66;;;14.30;76.93
73220;BME280;61434;43.538;-5.688;2022-11-20T03:38:54;101703.22;;;14.30;76.72
73220;BME280;61434;43.538;-5.688;2022-11-20T03:41:20;101711.63;;;14.27;76.83
73220;BME280;61434;43.538;-5.688;2022-11-20T03:43:49;101706.16;;;14.38;76.42
73220;BME280;61434;43.538;-5.688;2022-11-20T03:46:15;101714.16;;;14.40;76.42
73220;BME280;61434;43.538;-5.688;2022-11-20T03:48:41;101712.69;;;14.35;76.62
73220;BME280;61434;43.538;-5.688;2022-11-20T03:51:10;101726.09;;;14.37;77.08
73220;BME280;61434;43.538;-5.688;2022-11-20T03:53:35;101723.28;;;14.38;77.61
73220;BME280;61434;43.538;-5.688;2022-11-20T03:56:01;101725.84;;;14.40;78.70
73220;BME280;61434;43.538;-5.688;2022-11-20T03:58:26;101733.13;;;14.40;79.78
73220;BME280;61434;43.538;-5.688;2022-11-20T04:00:51;101727.84;;;14.38;80.71
73220;BME280;61434;43.538;-5.688;2022-11-20T04:03:17;101735.28;;;14.46;80.87
73220;BME280;61434;43.538;-5.688;2022-11-20T04:05:42;101730.72;;;14.46;80.98
73220;BME280;61434;43.538;-5.688;2022-11-20T04:08:07;101746.28;;;14.44;81.54
73220;BME280;61434;43.538;-5.688;2022-11-20T04:10:33;101755.97;;;14.47;81.32
73220;BME280;61434;43.538;-5.688;2022-11-20T04:12:58;101747.78;;;14.48;81.65
73220;BME280;61434;43.538;-5.688;2022-11-20T04:15:24;101753.56;;;14.44;81.96
73220;BME280;61434;43.538;-5.688;2022-11-20T04:17:49;101757.66;;;14.38;82.51
73220;BME280;61434;43.538;-5.688;2022-11-20T04:20:14;101760.53;;;14.46;82.54
73220;BME280;61434;43.538;-5.688;2022-11-20T04:22:40;101770.31;;;14.49;82.42
73220;BME280;61434;43.538;-5.688;2022-11-20T04:25:05;101770.41;;;14.47;82.47
73220;BME280;61434;43.538;-5.688;2022-11-20T04:27:30;101774.50;;;14.53;82.46
73220;BME280;61434;43.538;-5.688;2022-11-20T04:29:56;101767.81;;;14.46;82.58
73220;BME280;61434;43.538;-5.688;2022-11-20T04:32:21;101758.69;;;14.47;82.76
73220;BME280;61434;43.538;-5.688;2022-11-20T04:34:46;101754.16;;;14.47;82.76
73220;BME280;61434;43.538;-5.688;2022-11-20T04:37:12;101756.75;;;14.49;82.82
73220;BME280;61434;43.538;-5.688;2022-11-20T04:39:37;101746.91;;;14.48;82.53
73220;BME280;61434;43.538;-5.688;2022-11-20T04:42:02;101754.25;;;14.46;82.61
73220;BME280;61434;43.538;-5.688;2022-11-20T04:44:46;101760.06;;;14.41;82.50
73220;BME280;61434;43.538;-5.688;2022-11-20T04:47:11;101753.09;;;14.38;82.60
73220;BME280;61434;43.538;-5.688;2022-11-20T04:49:36;101753.47;;;14.34;82.82
73220;BME280;61434;43.538;-5.688;2022-11-20T04:52:02;101762.31;;;14.36;82.76
73220;BME280;61434;43.538;-5.688;2022-11-20T04:54:27;101756.91;;;14.36;82.83
73220;BME280;61434;43.538;-5.688;2022-11-20T04:56:52;101757.91;;;14.35;82.47
73220;BME280;61434;43.538;-5.688;2022-11-20T04:59:18;101765.88;;;14.48;81.96
73220;BME280;61434;43.538;-5.688;2022-11-20T05:01:43;101754.75;;;14.51;81.38
73220;BME280;61434;43.538;-5.688;2022-11-20T05:04:08;101760.78;;;14.54;81.28
73220;BME280;61434;43.538;-5.688;2022-11-20T05:06:33;101770.78;;;14.54;80.65
73220;BME280;61434;43.538;-5.688;2022-11-20T05:08:59;101768.22;;;14.52;80.47
73220;BME280;61434;43.538;-5.688;2022-11-20T05:11:24;101770.31;;;14.49;80.22
73220;BME280;61434;43.538;-5.688;2022-11-20T05:13:50;101769.22;;;14.40;80.28
73220;BME280;61434;43.538;-5.688;2022-11-20T05:16:21;101771.03;;;14.51;79.94
73220;BME280;61434;43.538;-5.688;2022-11-20T05:18:46;101774.50;;;14.53;79.61
73220;BME280;61434;43.538;-5.688;2022-11-20T05:21:12;101778.06;;;14.53;79.87
73220;BME280;61434;43.538;-5.688;2022-11-20T05:23:38;101779.16;;;14.51;80.05
73220;BME280;61434;43.538;-5.688;2022-11-20T05:26:03;101786.19;;;14.53;80.05
73220;BME280;61434;43.538;-5.688;2022-11-20T05:28:29;101804.25;;;14.64;79.79
73220;BME280;61434;43.538;-5.688;2022-11-20T05:30:55;101808.56;;;14.67;79.14
73220;BME280;61434;43.538;-5.688;2022-11-20T05:33:20;101819.50;;;14.65;79.55
73220;BME280;61434;43.538;-5.688;2022-11-20T05:35:46;101825.28;;;14.72;79.53
73220;BME280;61434;43.538;-5.688;2022-11-20T05:38:11;101842.53;;;14.71;79.50
73220;BME280;61434;43.538;-5.688;2022-11-20T05:40:36;101876.81;;;14.72;79.87
73220;BME280;61434;43.538;-5.688;2022-11-20T05:43:02;101882.16;;;14.62;80.75
73220;BME280;61434;43.538;-5.688;2022-11-20T05:45:27;101887.34;;;14.54;82.09
73220;BME280;61434;43.538;-5.688;2022-11-20T05:47:53;101899.06;;;14.54;84.59
73220;BME280;61434;43.538;-5.688;2022-11-20T05:50:18;101902.38;;;14.47;85.74
73220;BME280;61434;43.538;-5.688;2022-11-20T05:52:43;101900.78;;;14.44;86.76
73220;BME280;61434;43.538;-5.688;2022-11-20T05:55:09;101908.56;;;14.49;87.01
73220;BME280;61434;43.538;-5.688;2022-11-20T05:57:34;101907.06;;;14.45;87.60
73220;BME280;61434;43.538;-5.688;2022-11-20T05:59:59;101920.63;;;14.45;87.97
73220;BME280;61434;43.538;-5.688;2022-11-20T06:02:25;101921.34;;;14.47;88.32
73220;BME280;61434;43.538;-5.688;2022-11-20T06:04:50;101912.28;;;14.48;88.82
73220;BME280;61434;43.538;-5.688;2022-11-20T06:07:15;101916.91;;;14.46;88.65
73220;BME280;61434;43.538;-5.688;2022-11-20T06:09:40;101907.78;;;14.47;88.66
73220;BME280;61434;43.538;-5.688;2022-11-20T06:12:06;101911.38;;;14.47;88.85
73220;BME280;61434;43.538;-5.688;2022-11-20T06:14:32;101912.34;;;14.46;89.03
73220;BME280;61434;43.538;-5.688;2022-11-20T06:16:57;101910.50;;;14.47;89.03
73220;BME280;61434;43.538;-5.688;2022-11-20T06:19:23;101900.66;;;14.46;88.99
73220;BME280;61434;43.538;-5.688;2022-11-20T06:21:48;101901.91;;;14.53;89.12
73220;BME280;61434;43.538;-5.688;2022-11-20T06:24:14;101900.19;;;14.52;88.96
73220;BME280;61434;43.538;-5.688;2022-11-20T06:26:40;101901.50;;;14.46;89.34
73220;BME280;61434;43.538;-5.688;2022-11-20T06:29:05;101897.94;;;14.46;89.27
73220;BME280;61434;43.538;-5.688;2022-11-20T06:31:30;101895.50;;;14.43;89.91
73220;BME280;61434;43.538;-5.688;2022-11-20T06:33:59;101895.59;;;14.41;89.95
73220;BME280;61434;43.538;-5.688;2022-11-20T06:36:25;101895.50;;;14.43;89.85
73220;BME280;61434;43.538;-5.688;2022-11-20T06:38:50;101898.94;;;14.45;89.58
73220;BME280;61434;43.538;-5.688;2022-11-20T06:41:17;101896.88;;;14.48;89.74
73220;BME280;61434;43.538;-5.688;2022-11-20T06:43:43;101897.94;;;14.46;89.29
73220;BME280;61434;43.538;-5.688;2022-11-20T06:46:09;101906.84;;;14.48;89.05
73220;BME280;61434;43.538;-5.688;2022-11-20T06:48:34;101905.00;;;14.48;88.73
73220;BME280;61434;43.538;-5.688;2022-11-20T06:50:59;101917.56;;;14.49;88.63
73220;BME280;61434;43.538;-5.688;2022-11-20T06:53:27;101921.13;;;14.50;88.21
73220;BME280;61434;43.538;-5.688;2022-11-20T06:55:55;101923.97;;;14.48;88.35
73220;BME280;61434;43.538;-5.688;2022-11-20T06:58:20;101924.59;;;14.52;88.27
73220;BME280;61434;43.538;-5.688;2022-11-20T07:00:45;101917.41;;;14.51;87.96
73220;BME280;61434;43.538;-5.688;2022-11-20T07:03:11;101923.31;;;14.56;87.91
73220;BME280;61434;43.538;-5.688;2022-11-20T07:05:36;101926.78;;;14.58;87.76
73220;BME280;61434;43.538;-5.688;2022-11-20T07:08:02;101934.44;;;14.53;88.16
73220;BME280;61434;43.538;-5.688;2022-11-20T07:10:28;101936.63;;;14.59;88.34
73220;BME280;61434;43.538;-5.688;2022-11-20T07:12:53;101942.69;;;14.51;88.09
73220;BME280;61434;43.538;-5.688;2022-11-20T07:15:19;101946.28;;;14.52;88.15
73220;BME280;61434;43.538;-5.688;2022-11-20T07:17:45;101945.53;;;14.50;88.57
73220;BME280;61434;43.538;-5.688;2022-11-20T07:20:11;101946.53;;;14.49;88.78
73220;BME280;61434;43.538;-5.688;2022-11-20T07:22:36;101948.44;;;14.47;88.82
73220;BME280;61434;43.538;-5.688;2022-11-20T07:25:02;101955.38;;;14.51;88.96
73220;BME280;61434;43.538;-5.688;2022-11-20T07:27:27;101958.84;;;14.53;89.04
73220;BME280;61434;43.538;-5.688;2022-11-20T07:29:53;101956.84;;;14.55;88.92
73220;BME280;61434;43.538;-5.688;2022-11-20T07:32:18;101962.66;;;14.61;88.87
73220;BME280;61434;43.538;-5.688;2022-11-20T07:34:43;101975.59;;;14.58;88.91
73220;BME280;61434;43.538;-5.688;2022-11-20T07:37:09;101990.50;;;14.52;89.31
73220;BME280;61434;43.538;-5.688;2022-11-20T07:39:34;101993.94;;;14.54;89.28
73220;BME280;61434;43.538;-5.688;2022-11-20T07:41:59;102003.69;;;14.57;89.41
73220;BME280;61434;43.538;-5.688;2022-11-20T07:44:25;102002.94;;;14.55;88.97
73220;BME280;61434;43.538;-5.688;2022-11-20T07:46:50;102010.22;;;14.54;88.75
73220;BME280;61434;43.538;-5.688;2022-11-20T07:49:15;102020.72;;;14.48;88.02
73220;BME280;61434;43.538;-5.688;2022-11-20T07:51:40;102028.56;;;14.51;87.22
73220;BME280;61434;43.538;-5.688;2022-11-20T07:54:06;102036.09;;;14.47;87.39
73220;BME280;61434;43.538;-5.688;2022-11-20T07:56:31;102044.13;;;14.49;87.46
73220;BME280;61434;43.538;-5.688;2022-11-20T07:58:56;102050.41;;;14.49;87.18
73220;BME280;61434;43.538;-5.688;2022-11-20T08:01:22;102058.16;;;14.54;86.48
73220;BME280;61434;43.538;-5.688;2022-11-20T08:03:47;102061.00;;;14.52;85.70
73220;BME280;61434;43.538;-5.688;2022-11-20T08:06:12;102074.03;;;14.47;84.88
73220;BME280;61434;43.538;-5.688;2022-11-20T08:08:39;102071.09;;;14.50;84.82
73220;BME280;61434;43.538;-5.688;2022-11-20T08:11:05;102072.44;;;14.56;84.99
73220;BME280;61434;43.538;-5.688;2022-11-20T08:13:49;102080.56;;;14.56;84.77
73220;BME280;61434;43.538;-5.688;2022-11-20T08:16:33;102081.97;;;14.61;84.04
73220;BME280;61434;43.538;-5.688;2022-11-20T08:18:58;102074.03;;;14.70;83.89
73220;BME280;61434;43.538;-5.688;2022-11-20T08:21:24;102076.13;;;14.77;83.15
73220;BME280;61434;43.538;-5.688;2022-11-20T08:23:49;102075.22;;;14.99;82.07
73220;BME280;61434;43.538;-5.688;2022-11-20T08:26:14;102090.03;;;15.06;81.32
73220;BME280;61434;43.538;-5.688;2022-11-20T08:28:40;102081.84;;;15.18;80.47
73220;BME280;61434;43.538;-5.688;2022-11-20T08:31:05;102075.56;;;15.17;79.81
73220;BME280;61434;43.538;-5.688;2022-11-20T08:33:31;102074.63;;;14.96;80.00
73220;BME280;61434;43.538;-5.688;2022-11-20T08:36:03;102085.59;;;14.94;79.77
73220;BME280;61434;43.538;-5.688;2022-11-20T08:38:29;102095.59;;;15.05;79.63
73220;BME280;61434;43.538;-5.688;2022-11-20T08:40:57;102101.00;;;15.05;79.26
73220;BME280;61434;43.538;-5.688;2022-11-20T08:43:41;102104.59;;;15.05;79.01
73220;BME280;61434;43.538;-5.688;2022-11-20T08:46:06;102113.59;;;15.06;78.67
73220;BME280;61434;43.538;-5.688;2022-11-20T08:48:32;102113.09;;;15.01;78.78
73220;BME280;61434;43.538;-5.688;2022-11-20T08:50:58;102112.94;;;15.13;78.40
73220;BME280;61434;43.538;-5.688;2022-11-20T08:53:23;102125.38;;;15.27;77.76
73220;BME280;61434;43.538;-5.688;2022-11-20T08:55:49;102120.50;;;15.42;76.86
73220;BME280;61434;43.538;-5.688;2022-11-20T08:58:14;102118.84;;;15.73;75.85
73220;BME280;61434;43.538;-5.688;2022-11-20T09:00:39;102128.91;;;16.03;74.29
73220;BME280;61434;43.538;-5.688;2022-11-20T09:03:04;102137.78;;;15.84;74.00
73220;BME280;61434;43.538;-5.688;2022-11-20T09:05:30;102136.16;;;15.93;74.05
73220;BME280;61434;43.538;-5.688;2022-11-20T09:07:56;102135.16;;;15.94;73.24
73220;BME280;61434;43.538;-5.688;2022-11-20T09:10:21;102140.88;;;15.91;73.07
73220;BME280;61434;43.538;-5.688;2022-11-20T09:12:48;102154.59;;;16.10;72.41
73220;BME280;61434;43.538;-5.688;2022-11-20T09:15:14;102154.13;;;16.26;71.67
73220;BME280;61434;43.538;-5.688;2022-11-20T09:17:39;102147.75;;;16.37;71.03
73220;BME280;61434;43.538;-5.688;2022-11-20T09:20:04;102143.44;;;16.34;70.90
73220;BME280;61434;43.538;-5.688;2022-11-20T09:22:30;102143.31;;;16.15;71.71
73220;BME280;61434;43.538;-5.688;2022-11-20T09:24:55;102132.97;;;16.30;70.88
73220;BME280;61434;43.538;-5.688;2022-11-20T09:27:20;102139.41;;;16.80;69.09
73220;BME280;61434;43.538;-5.688;2022-11-20T09:29:46;102146.88;;;17.28;67.06
73220;BME280;61434;43.538;-5.688;2022-11-20T09:32:11;102142.88;;;19.41;61.46
73220;BME280;61434;43.538;-5.688;2022-11-20T09:34:37;102148.63;;;20.79;56.46
73220;BME280;61434;43.538;-5.688;2022-11-20T09:37:02;102148.00;;;23.38;48.57
73220;BME280;61434;43.538;-5.688;2022-11-20T09:39:27;102150.94;;;24.66;45.56
73220;BME280;61434;43.538;-5.688;2022-11-20T09:41:56;102158.56;;;23.58;47.10
73220;BME280;61434;43.538;-5.688;2022-11-20T09:54:38;102184.50;;;20.42;55.84
73220;BME280;61434;43.538;-5.688;2022-11-20T09:57:14;102175.16;;;21.05;53.45
73220;BME280;61434;43.538;-5.688;2022-11-20T09:59:42;102184.44;;;20.16;55.04
73220;BME280;61434;43.538;-5.688;2022-11-20T10:02:14;102182.34;;;19.92;56.90
73220;BME280;61434;43.538;-5.688;2022-11-20T10:04:42;102187.75;;;20.19;55.25
73220;BME280;61434;43.538;-5.688;2022-11-20T10:07:16;102196.97;;;18.53;60.20
73220;BME280;61434;43.538;-5.688;2022-11-20T10:09:49;102210.38;;;17.79;63.73
73220;BME280;61434;43.538;-5.688;2022-11-20T10:12:31;102218.16;;;17.03;67.35
73220;BME280;61434;43.538;-5.688;2022-11-20T10:15:02;102216.81;;;17.28;66.88
73220;BME280;61434;43.538;-5.688;2022-11-20T10:25:17;102201.50;;;19.19;60.22
73220;BME280;61434;43.538;-5.688;2022-11-20T10:30:09;102208.06;;;18.32;63.40
73220;BME280;61434;43.538;-5.688;2022-11-20T10:32:52;102203.31;;;18.34;63.92
73220;BME280;61434;43.538;-5.688;2022-11-20T10:35:20;102207.63;;;18.46;63.76
73220;BME280;61434;43.538;-5.688;2022-11-20T10:37:58;102211.66;;;18.04;63.81
73220;BME280;61434;43.538;-5.688;2022-11-20T10:40:40;102209.81;;;17.94;64.44
73220;BME280;61434;43.538;-5.688;2022-11-20T10:43:12;102218.13;;;17.93;64.51
73220;BME280;61434;43.538;-5.688;2022-11-20T10:45:53;102219.56;;;18.07;63.50
73220;BME280;61434;43.538;-5.688;2022-11-20T10:48:22;102219.41;;;17.99;63.73
73220;BME280;61434;43.538;-5.688;2022-11-20T10:50:59;102215.66;;;17.80;64.07
73220;BME280;61434;43.538;-5.688;2022-11-20T10:53:34;102206.38;;;18.02;63.46
73220;BME280;61434;43.538;-5.688;2022-11-20T10:56:07;102200.47;;;17.78;64.03
73220;BME280;61434;43.538;-5.688;2022-11-20T10:58:42;102179.59;;;17.57;64.74
73220;BME280;61434;43.538;-5.688;2022-11-20T11:01:14;102183.03;;;17.40;63.63
73220;BME280;61434;43.538;-5.688;2022-11-20T11:03:40;102185.50;;;17.72;62.79
73220;BME280;61434;43.538;-5.688;2022-11-20T11:08:39;102183.78;;;17.71;63.04
73220;BME280;61434;43.538;-5.688;2022-11-20T11:13:42;102183.06;;;17.69;62.59
73220;BME280;61434;43.538;-5.688;2022-11-20T11:16:16;102181.47;;;17.57;63.09
73220;BME280;61434;43.538;-5.688;2022-11-20T11:18:44;102167.84;;;17.57;61.96
73220;BME280;61434;43.538;-5.688;2022-11-20T11:21:09;102164.00;;;17.59;62.59
73220;BME280;61434;43.538;-5.688;2022-11-20T11:23:42;102173.16;;;17.49;63.08
73220;BME280;61434;43.538;-5.688;2022-11-20T11:26:23;102153.94;;;17.60;63.06
73220;BME280;61434;43.538;-5.688;2022-11-20T11:28:58;102158.81;;;17.56;63.23
73220;BME280;61434;43.538;-5.688;2022-11-20T11:31:31;102154.38;;;17.55;62.33
73220;BME280;61434;43.538;-5.688;2022-11-20T11:34:03;102150.22;;;17.61;61.77
73220;BME280;61434;43.538;-5.688;2022-11-20T11:36:29;102149.16;;;17.23;61.92
73220;BME280;61434;43.538;-5.688;2022-11-20T11:38:54;102142.97;;;17.11;61.37
73220;BME280;61434;43.538;-5.688;2022-11-20T11:41:24;102152.59;;;17.25;61.11
73220;BME280;61434;43.538;-5.688;2022-11-20T11:43:57;102167.03;;;17.06;60.60
73220;BME280;61434;43.538;-5.688;2022-11-20T11:46:44;102155.25;;;16.96;60.26
73220;BME280;61434;43.538;-5.688;2022-11-20T11:49:16;102152.13;;;17.10;60.34
73220;BME280;61434;43.538;-5.688;2022-11-20T11:54:15;102155.16;;;17.17;60.92
73220;BME280;61434;43.538;-5.688;2022-11-20T11:56:41;102162.94;;;17.41;60.21
73220;BME280;61434;43.538;-5.688;2022-11-20T11:59:08;102152.63;;;17.35;60.88
73220;BME280;61434;43.538;-5.688;2022-11-20T12:01:54;102149.31;;;17.31;61.45
73220;BME280;61434;43.538;-5.688;2022-11-20T12:06:50;102148.91;;;17.36;61.10
73220;BME280;61434;43.538;-5.688;2022-11-20T12:09:16;102139.00;;;17.35;61.55
73220;BME280;61434;43.538;-5.688;2022-11-20T12:11:45;102141.75;;;17.54;60.82
73220;BME280;61434;43.538;-5.688;2022-11-20T12:14:24;102127.28;;;17.54;61.25
73220;BME280;61434;43.538;-5.688;2022-11-20T12:16:52;102125.84;;;17.69;60.66
73220;BME280;61434;43.538;-5.688;2022-11-20T12:19:20;102117.94;;;17.37;61.38
73220;BME280;61434;43.538;-5.688;2022-11-20T12:21:58;102112.06;;;17.51;61.34
73220;BME280;61434;43.538;-5.688;2022-11-20T12:32:40;102092.56;;;17.36;60.91
73220;BME280;61434;43.538;-5.688;2022-11-20T12:37:48;102079.22;;;17.33;59.55
73220;BME280;61434;43.538;-5.688;2022-11-20T12:53:05;102074.06;;;17.40;60.20
73220;BME280;61434;43.538;-5.688;2022-11-20T12:55:58;102076.22;;;17.27;59.55
73220;BME280;61434;43.538;-5.688;2022-11-20T13:06:38;102052.84;;;17.43;59.79
73220;BME280;61434;43.538;-5.688;2022-11-20T13:09:06;102056.00;;;17.39;59.83
73220;BME280;61434;43.538;-5.688;2022-11-20T13:16:53;102048.41;;;17.23;60.46
73220;BME280;61434;43.538;-5.688;2022-11-20T13:19:19;102038.78;;;17.38;60.26
73220;BME280;61434;43.538;-5.688;2022-11-20T13:21:46;102034.22;;;17.49;59.84
73220;BME280;61434;43.538;-5.688;2022-11-20T13:32:32;101996.22;;;17.37;59.35
73220;BME280;61434;43.538;-5.688;2022-11-20T13:39:50;101956.09;;;17.39;59.49
73220;BME280;61434;43.538;-5.688;2022-11-20T13:44:48;101957.66;;;17.42;59.89
73220;BME280;61434;43.538;-5.688;2022-11-20T13:47:25;101946.53;;;17.16;59.29
73220;BME280;61434;43.538;-5.688;2022-11-20T13:49:51;101943.81;;;17.16;59.10
73220;BME280;61434;43.538;-5.688;2022-11-20T13:57:35;101971.81;;;17.84;58.69
73220;BME280;61434;43.538;-5.688;2022-11-20T14:00:11;101966.22;;;17.66;58.21
73220;BME280;61434;43.538;-5.688;2022-11-20T14:02:37;101964.34;;;17.67;58.64
73220;BME280;61434;43.538;-5.688;2022-11-20T14:05:02;101972.88;;;17.44;58.83
73220;BME280;61434;43.538;-5.688;2022-11-20T14:07:35;101984.31;;;17.29;59.20
73220;BME280;61434;43.538;-5.688;2022-11-20T14:10:03;101980.03;;;17.46;59.20
73220;BME280;61434;43.538;-5.688;2022-11-20T14:12:30;101988.66;;;17.31;59.28
73220;BME280;61434;43.538;-5.688;2022-11-20T14:14:55;101980.75;;;17.38;59.22